EKAL weather

CLOSED Allerød Airport
Allerød, Capital Region, Denmark

Public forecast

Using degrees Celsius for public forecast. Weather courtesy of forecast.io.

Closest aviation weather report (METAR) to Allerød Airport

Closest report is Copenhagen Roskilde Airport, 18.2 nm (33.7 km) SSW. Retrieved 2019/10/16 05:20 UTC (24 minutes ago):

EKRK 160520Z AUTO 34002KT 0400 R11/1300U R29/1300U -SHRA FG VV003 12/12 Q1004

Closest aviation forecast (TAF) to Allerød Airport

Closest forecast is Copenhagen Kastrup Airport, 19.0 nm (35.2 km) SE. Retrieved 2019-10-16 00:30 UTC (5 hours ago):

TAF EKCH 152303Z 1600/1624 03005KT 0200 FG VV001 TEMPO 1600/1610 3000 BR SCT004 BECMG 1610/1612 6000 NSW BKN005 TEMPO 1612/1618 3000 RADZ BR SCT006 BKN015 BECMG 1618/1620 26010KT BKN015 TEMPO 1620/1624 4000 BR BKN008